sensor_id;sensor_type;location;lat;lon;timestamp;pressure;altitude;pressure_sealevel;temperature;humidity
48352;BME280;34163;49.314;6.752;2022-10-16T00:01:27;99311.31;;;5.83;100.00
48352;BME280;34163;49.314;6.752;2022-10-16T00:03:52;99303.28;;;5.59;100.00
48352;BME280;34163;49.314;6.752;2022-10-16T00:06:18;99315.69;;;5.54;100.00
48352;BME280;34163;49.314;6.752;2022-10-16T00:08:44;99306.72;;;5.61;100.00
48352;BME280;34163;49.314;6.752;2022-10-16T00:11:14;99311.78;;;5.68;100.00
48352;BME280;34163;49.314;6.752;2022-10-16T00:13:40;99315.34;;;5.67;100.00
48352;BME280;34163;49.314;6.752;2022-10-16T00:16:13;99314.63;;;5.60;100.00
48352;BME280;34163;49.314;6.752;2022-10-16T00:18:39;99313.94;;;5.55;100.00
48352;BME280;34163;49.314;6.752;2022-10-16T00:21:08;99315.03;;;5.48;100.00
48352;BME280;34163;49.314;6.752;2022-10-16T00:23:34;99317.22;;;5.61;100.00
48352;BME280;34163;49.314;6.752;2022-10-16T00:26:00;99308.63;;;5.56;100.00
48352;BME280;34163;49.314;6.752;2022-10-16T00:28:26;99305.84;;;5.61;100.00
48352;BME280;34163;49.314;6.752;2022-10-16T00:30:52;99319.31;;;5.50;100.00
48352;BME280;34163;49.314;6.752;2022-10-16T00:33:17;99323.09;;;5.41;100.00
48352;BME280;34163;49.314;6.752;2022-10-16T00:35:43;99320.47;;;5.41;100.00
48352;BME280;34163;49.314;6.752;2022-10-16T00:38:08;99329.28;;;5.69;100.00
48352;BME280;34163;49.314;6.752;2022-10-16T00:40:34;99323.66;;;5.81;100.00
48352;BME280;34163;49.314;6.752;2022-10-16T00:42:59;99320.59;;;5.67;100.00
48352;BME280;34163;49.314;6.752;2022-10-16T00:45:24;99328.72;;;5.59;100.00
48352;BME280;34163;49.314;6.752;2022-10-16T00:47:49;99343.47;;;5.63;100.00
48352;BME280;34163;49.314;6.752;2022-10-16T00:52:48;99331.06;;;5.68;100.00
48352;BME280;34163;49.314;6.752;2022-10-16T03:36:44;99381.00;;;5.68;100.00
48352;BME280;34163;49.314;6.752;2022-10-16T03:39:09;99378.09;;;5.77;100.00
48352;BME280;34163;49.314;6.752;2022-10-16T03:41:34;99371.94;;;5.78;100.00
48352;BME280;34163;49.314;6.752;2022-10-16T03:43:59;99361.41;;;5.78;100.00
48352;BME280;34163;49.314;6.752;2022-10-16T03:46:25;99368.53;;;5.75;100.00
48352;BME280;34163;49.314;6.752;2022-10-16T03:48:50;99370.88;;;5.54;100.00
48352;BME280;34163;49.314;6.752;2022-10-16T03:51:15;99377.22;;;5.47;100.00
48352;BME280;34163;49.314;6.752;2022-10-16T03:53:40;99377.03;;;5.53;100.00
48352;BME280;34163;49.314;6.752;2022-10-16T03:56:06;99371.25;;;5.72;100.00
48352;BME280;34163;49.314;6.752;2022-10-16T03:58:31;99380.13;;;5.68;100.00
48352;BME280;34163;49.314;6.752;2022-10-16T04:00:56;99381.00;;;5.68;100.00
48352;BME280;34163;49.314;6.752;2022-10-16T04:03:22;99377.03;;;5.53;100.00
48352;BME280;34163;49.314;6.752;2022-10-16T04:05:48;99383.31;;;5.79;100.00
48352;BME280;34163;49.314;6.752;2022-10-16T04:08:13;99390.81;;;5.61;100.00
48352;BME280;34163;49.314;6.752;2022-10-16T04:10:38;99392.16;;;5.76;100.00
48352;BME280;34163;49.314;6.752;2022-10-16T04:13:03;99382.03;;;5.62;100.00
48352;BME280;34163;49.314;6.752;2022-10-16T04:15:29;99383.09;;;5.57;100.00
48352;BME280;34163;49.314;6.752;2022-10-16T04:17:54;99389.91;;;5.62;100.00
48352;BME280;34163;49.314;6.752;2022-10-16T04:20:19;99388.22;;;5.60;100.00
48352;BME280;34163;49.314;6.752;2022-10-16T04:22:45;99381.44;;;5.53;100.00
48352;BME280;34163;49.314;6.752;2022-10-16T04:25:10;99378.94;;;5.48;100.00
48352;BME280;34163;49.314;6.752;2022-10-16T04:27:36;99388.94;;;5.67;100.00
48352;BME280;34163;49.314;6.752;2022-10-16T04:30:01;99378.59;;;5.60;100.00
48352;BME280;34163;49.314;6.752;2022-10-16T04:32:26;99387.47;;;5.56;100.00
48352;BME280;34163;49.314;6.752;2022-10-16T04:34:52;99396.81;;;5.67;100.00
48352;BME280;34163;49.314;6.752;2022-10-16T04:37:18;99400.34;;;5.66;100.00
48352;BME280;34163;49.314;6.752;2022-10-16T04:39:43;99397.09;;;5.57;100.00
48352;BME280;34163;49.314;6.752;2022-10-16T04:42:10;99396.28;;;5.55;100.00
48352;BME280;34163;49.314;6.752;2022-10-16T04:44:35;99407.22;;;5.40;100.00
48352;BME280;34163;49.314;6.752;2022-10-16T04:47:00;99399.47;;;5.67;100.00
48352;BME280;34163;49.314;6.752;2022-10-16T04:49:26;99400.00;;;5.78;100.00
48352;BME280;34163;49.314;6.752;2022-10-16T04:51:51;99401.25;;;5.64;100.00
48352;BME280;34163;49.314;6.752;2022-10-16T04:54:16;99397.38;;;5.78;100.00
48352;BME280;34163;49.314;6.752;2022-10-16T04:56:42;99393.94;;;5.74;100.00
48352;BME280;34163;49.314;6.752;2022-10-16T04:59:15;99387.72;;;5.47;100.00
48352;BME280;34163;49.314;6.752;2022-10-16T05:01:41;99395.72;;;5.74;100.00
48352;BME280;34163;49.314;6.752;2022-10-16T05:04:06;99397.75;;;5.95;100.00
48352;BME280;34163;49.314;6.752;2022-10-16T05:06:31;99402.84;;;6.02;100.00
48352;BME280;34163;49.314;6.752;2022-10-16T05:08:56;99397.91;;;5.89;100.00
48352;BME280;34163;49.314;6.752;2022-10-16T05:11:22;99389.41;;;5.81;100.00
48352;BME280;34163;49.314;6.752;2022-10-16T12:56:24;99648.84;;;5.44;100.00
48352;BME280;34163;49.314;6.752;2022-10-16T12:59:26;99648.41;;;5.61;100.00
48352;BME280;34163;49.314;6.752;2022-10-16T13:26:58;99656.13;;;5.69;100.00
48352;BME280;34163;49.314;6.752;2022-10-16T13:29:31;99654.53;;;5.63;100.00
48352;BME280;34163;49.314;6.752;2022-10-16T13:31:57;99647.63;;;5.58;100.00
48352;BME280;34163;49.314;6.752;2022-10-16T13:34:23;99647.53;;;5.62;100.00
48352;BME280;34163;49.314;6.752;2022-10-16T13:36:49;99649.25;;;5.63;100.00
48352;BME280;34163;49.314;6.752;2022-10-16T13:39:24;99645.78;;;5.61;100.00
48352;BME280;34163;49.314;6.752;2022-10-16T13:44:27;99641.16;;;5.73;100.00
48352;BME280;34163;49.314;6.752;2022-10-16T13:46:59;99647.75;;;5.89;100.00
48352;BME280;34163;49.314;6.752;2022-10-16T13:49:25;99639.97;;;6.19;100.00
48352;BME280;34163;49.314;6.752;2022-10-16T13:52:00;99639.53;;;6.03;100.00
48352;BME280;34163;49.314;6.752;2022-10-16T13:54:27;99633.84;;;6.18;100.00
48352;BME280;34163;49.314;6.752;2022-10-16T13:56:53;99629.25;;;6.25;100.00
48352;BME280;34163;49.314;6.752;2022-10-16T13:59:35;99636.00;;;6.03;100.00
48352;BME280;34163;49.314;6.752;2022-10-16T14:02:04;99632.25;;;6.13;100.00
48352;BME280;34163;49.314;6.752;2022-10-16T14:04:33;99629.00;;;6.03;100.00
48352;BME280;34163;49.314;6.752;2022-10-16T14:07:03;99638.41;;;5.76;100.00
48352;BME280;34163;49.314;6.752;2022-10-16T14:09:29;99630.63;;;5.73;100.00
48352;BME280;34163;49.314;6.752;2022-10-16T14:12:02;99634.16;;;5.72;100.00
48352;BME280;34163;49.314;6.752;2022-10-16T14:14:31;99632.03;;;5.86;100.00
48352;BME280;34163;49.314;6.752;2022-10-16T14:16:59;99631.25;;;6.17;100.00
48352;BME280;34163;49.314;6.752;2022-10-16T14:19:25;99633.06;;;6.15;100.00
48352;BME280;34163;49.314;6.752;2022-10-16T14:21:51;99626.31;;;6.05;100.00
48352;BME280;34163;49.314;6.752;2022-10-16T14:24:27;99635.50;;;6.23;100.00
48352;BME280;34163;49.314;6.752;2022-10-16T14:26:56;99638.38;;;6.13;100.00
48352;BME280;34163;49.314;6.752;2022-10-16T14:29:22;99637.63;;;6.08;100.00
48352;BME280;34163;49.314;6.752;2022-10-16T14:32:00;99639.47;;;6.05;100.00
48352;BME280;34163;49.314;6.752;2022-10-16T14:34:28;99630.03;;;5.97;100.00
48352;BME280;34163;49.314;6.752;2022-10-16T14:36:55;99633.41;;;6.01;100.00
48352;BME280;34163;49.314;6.752;2022-10-16T14:39:21;99640.06;;;6.16;100.00
48352;BME280;34163;49.314;6.752;2022-10-16T14:41:57;99637.34;;;6.19;100.00
48352;BME280;34163;49.314;6.752;2022-10-16T14:44:25;99633.25;;;6.07;100.00
48352;BME280;34163;49.314;6.752;2022-10-16T14:46:52;99642.97;;;6.05;100.00
48352;BME280;34163;49.314;6.752;2022-10-16T14:49:18;99640.13;;;6.13;100.00
48352;BME280;34163;49.314;6.752;2022-10-16T14:51:45;99637.88;;;5.99;100.00
48352;BME280;34163;49.314;6.752;2022-10-16T14:54:11;99638.03;;;5.91;100.00
48352;BME280;34163;49.314;6.752;2022-10-16T14:56:56;99643.53;;;6.16;100.00
48352;BME280;34163;49.314;6.752;2022-10-16T14:59:24;99636.66;;;6.11;100.00
48352;BME280;34163;49.314;6.752;2022-10-16T15:01:51;99634.44;;;6.28;100.00
48352;BME280;34163;49.314;6.752;2022-10-16T15:04:17;99638.44;;;6.10;100.00
48352;BME280;34163;49.314;6.752;2022-10-16T15:06:43;99638.59;;;6.04;100.00
48352;BME280;34163;49.314;6.752;2022-10-16T15:09:09;99635.16;;;6.02;100.00
48352;BME280;34163;49.314;6.752;2022-10-16T15:11:34;99630.03;;;5.97;100.00
48352;BME280;34163;49.314;6.752;2022-10-16T15:13:59;99630.97;;;5.93;100.00
48352;BME280;34163;49.314;6.752;2022-10-16T15:16:25;99625.75;;;5.92;100.00
48352;BME280;34163;49.314;6.752;2022-10-16T15:18:50;99632.50;;;6.04;100.00
48352;BME280;34163;49.314;6.752;2022-10-16T15:21:22;99627.38;;;6.30;100.00
48352;BME280;34163;49.314;6.752;2022-10-16T15:23:49;99624.69;;;6.00;100.00
48352;BME280;34163;49.314;6.752;2022-10-16T15:26:15;99637.16;;;5.92;100.00
48352;BME280;34163;49.314;6.752;2022-10-16T15:28:41;99624.00;;;6.25;100.00
48352;BME280;34163;49.314;6.752;2022-10-16T15:31:06;99623.16;;;6.25;100.00
48352;BME280;34163;49.314;6.752;2022-10-16T15:33:32;99627.72;;;6.18;100.00
48352;BME280;34163;49.314;6.752;2022-10-16T15:35:59;99627.81;;;6.15;100.00
48352;BME280;34163;49.314;6.752;2022-10-16T15:38:25;99626.94;;;6.14;100.00
48352;BME280;34163;49.314;6.752;2022-10-16T15:40:51;99628.50;;;5.87;100.00
48352;BME280;34163;49.314;6.752;2022-10-16T15:43:16;99623.78;;;6.02;100.00
48352;BME280;34163;49.314;6.752;2022-10-16T15:45:41;99633.47;;;5.99;100.00
48352;BME280;34163;49.314;6.752;2022-10-16T15:48:10;99622.56;;;5.79;100.00
48352;BME280;34163;49.314;6.752;2022-10-16T15:50:35;99616.81;;;5.64;100.00
48352;BME280;34163;49.314;6.752;2022-10-16T15:53:02;99622.97;;;5.63;100.00
48352;BME280;34163;49.314;6.752;2022-10-16T15:55:27;99620.94;;;6.09;100.00
48352;BME280;34163;49.314;6.752;2022-10-16T15:57:52;99623.34;;;6.17;100.00
48352;BME280;34163;49.314;6.752;2022-10-16T16:00:19;99621.28;;;5.97;100.00
48352;BME280;34163;49.314;6.752;2022-10-16T16:02:50;99623.59;;;5.73;100.00
48352;BME280;34163;49.314;6.752;2022-10-16T16:05:17;99629.44;;;5.85;100.00
48352;BME280;34163;49.314;6.752;2022-10-16T16:07:42;99624.09;;;6.22;100.00
48352;BME280;34163;49.314;6.752;2022-10-16T16:10:08;99624.88;;;5.91;100.00
48352;BME280;34163;49.314;6.752;2022-10-16T16:12:33;99623.63;;;6.06;100.00
48352;BME280;34163;49.314;6.752;2022-10-16T16:14:59;99625.03;;;6.20;100.00
48352;BME280;34163;49.314;6.752;2022-10-16T16:17:24;99628.41;;;6.25;100.00
48352;BME280;34163;49.314;6.752;2022-10-16T16:19:50;99635.50;;;6.23;100.00
48352;BME280;34163;49.314;6.752;2022-10-16T16:22:15;99633.66;;;6.25;100.00
48352;BME280;34163;49.314;6.752;2022-10-16T16:24:40;99630.91;;;6.29;100.00
48352;BME280;34163;49.314;6.752;2022-10-16T16:27:06;99632.75;;;6.27;100.00
48352;BME280;34163;49.314;6.752;2022-10-16T16:29:31;99638.69;;;6.34;100.00
48352;BME280;34163;49.314;6.752;2022-10-16T16:31:57;99641.34;;;6.32;100.00
48352;BME280;34163;49.314;6.752;2022-10-16T16:34:24;99639.50;;;6.36;100.00
48352;BME280;34163;49.314;6.752;2022-10-16T16:36:50;99642.97;;;6.36;100.00
48352;BME280;34163;49.314;6.752;2022-10-16T16:39:15;99644.72;;;6.38;100.00
48352;BME280;34163;49.314;6.752;2022-10-16T16:41:41;99652.63;;;6.38;100.00
48352;BME280;34163;49.314;6.752;2022-10-16T16:44:07;99642.25;;;6.31;100.00
48352;BME280;34163;49.314;6.752;2022-10-16T16:46:33;99647.50;;;6.31;100.00
48352;BME280;34163;49.314;6.752;2022-10-16T16:48:59;99659.22;;;6.21;100.00
48352;BME280;34163;49.314;6.752;2022-10-16T16:51:24;99654.69;;;6.26;100.00
48352;BME280;34163;49.314;6.752;2022-10-16T16:53:50;99659.13;;;6.24;100.00
48352;BME280;34163;49.314;6.752;2022-10-16T16:56:16;99668.16;;;6.14;100.00
48352;BME280;34163;49.314;6.752;2022-10-16T16:58:44;99661.91;;;6.18;100.00
48352;BME280;34163;49.314;6.752;2022-10-16T17:01:10;99673.53;;;6.09;100.00
48352;BME280;34163;49.314;6.752;2022-10-16T17:03:35;99670.31;;;5.98;100.00
48352;BME280;34163;49.314;6.752;2022-10-16T17:06:02;99674.16;;;5.85;100.00
48352;BME280;34163;49.314;6.752;2022-10-16T17:08:27;99679.28;;;5.89;100.00
48352;BME280;34163;49.314;6.752;2022-10-16T17:10:53;99683.63;;;5.90;100.00
48352;BME280;34163;49.314;6.752;2022-10-16T17:13:26;99684.28;;;6.02;100.00
48352;BME280;34163;49.314;6.752;2022-10-16T17:15:52;99692.22;;;6.00;100.00
48352;BME280;34163;49.314;6.752;2022-10-16T17:18:18;99691.91;;;6.11;100.00
48352;BME280;34163;49.314;6.752;2022-10-16T17:20:44;99693.22;;;5.93;100.00
48352;BME280;34163;49.314;6.752;2022-10-16T17:23:10;99699.19;;;6.01;100.00
48352;BME280;34163;49.314;6.752;2022-10-16T17:25:38;99703.66;;;5.97;100.00
48352;BME280;34163;49.314;6.752;2022-10-16T17:28:04;99712.06;;;5.74;100.00
48352;BME280;34163;49.314;6.752;2022-10-16T17:30:29;99713.72;;;5.80;100.00
48352;BME280;34163;49.314;6.752;2022-10-16T17:32:55;99719.94;;;5.76;100.00
48352;BME280;34163;49.314;6.752;2022-10-16T17:35:20;99719.28;;;6.04;100.00
48352;BME280;34163;49.314;6.752;2022-10-16T17:37:46;99714.03;;;6.04;100.00
48352;BME280;34163;49.314;6.752;2022-10-16T17:40:11;99721.09;;;6.02;100.00
48352;BME280;34163;49.314;6.752;2022-10-16T17:42:36;99727.13;;;6.07;100.00
48352;BME280;34163;49.314;6.752;2022-10-16T17:45:01;99726.56;;;5.92;100.00
48352;BME280;34163;49.314;6.752;2022-10-16T17:47:27;99727.00;;;6.11;100.00
48352;BME280;34163;49.314;6.752;2022-10-16T17:49:53;99730.03;;;5.93;100.00
48352;BME280;34163;49.314;6.752;2022-10-16T17:52:18;99727.84;;;5.74;100.00
48352;BME280;34163;49.314;6.752;2022-10-16T17:54:43;99732.31;;;5.71;100.00
48352;BME280;34163;49.314;6.752;2022-10-16T17:57:09;99730.84;;;5.95;100.00
48352;BME280;34163;49.314;6.752;2022-10-16T17:59:35;99733.44;;;5.98;100.00
48352;BME280;34163;49.314;6.752;2022-10-16T18:02:00;99733.47;;;5.96;100.00
48352;BME280;34163;49.314;6.752;2022-10-16T18:04:26;99739.63;;;5.97;100.00
48352;BME280;34163;49.314;6.752;2022-10-16T18:06:51;99752.84;;;5.92;100.00
48352;BME280;34163;49.314;6.752;2022-10-16T18:09:17;99742.56;;;5.83;100.00
48352;BME280;34163;49.314;6.752;2022-10-16T18:11:42;99761.56;;;5.94;100.00
48352;BME280;34163;49.314;6.752;2022-10-16T18:14:11;99754.53;;;5.96;100.00
48352;BME280;34163;49.314;6.752;2022-10-16T18:16:38;99760.59;;;6.00;100.00
48352;BME280;34163;49.314;6.752;2022-10-16T18:19:03;99769.38;;;5.99;100.00
48352;BME280;34163;49.314;6.752;2022-10-16T18:21:28;99764.16;;;5.97;100.00
48352;BME280;34163;49.314;6.752;2022-10-16T18:23:54;99766.53;;;6.08;100.00
48352;BME280;34163;49.314;6.752;2022-10-16T18:26:20;99765.50;;;6.14;100.00
48352;BME280;34163;49.314;6.752;2022-10-16T18:28:46;99769.16;;;6.08;100.00
48352;BME280;34163;49.314;6.752;2022-10-16T18:31:12;99772.63;;;6.10;100.00
48352;BME280;34163;49.314;6.752;2022-10-16T18:33:38;99770.94;;;6.06;100.00
48352;BME280;34163;49.314;6.752;2022-10-16T18:36:06;99768.97;;;6.16;100.00
48352;BME280;34163;49.314;6.752;2022-10-16T18:38:32;99760.19;;;6.15;100.00
48352;BME280;34163;49.314;6.752;2022-10-16T18:40:58;99761.00;;;6.19;100.00
48352;BME280;34163;49.314;6.752;2022-10-16T18:43:26;99771.59;;;6.16;100.00
48352;BME280;34163;49.314;6.752;2022-10-16T18:45:58;99773.25;;;6.20;100.00
48352;BME280;34163;49.314;6.752;2022-10-16T18:48:24;99785.59;;;6.18;100.00
48352;BME280;34163;49.314;6.752;2022-10-16T18:50:50;99775.19;;;6.12;100.00
48352;BME280;34163;49.314;6.752;2022-10-16T18:53:19;99776.91;;;6.14;100.00
48352;BME280;34163;49.314;6.752;2022-10-16T18:55:51;99781.44;;;6.08;100.00
48352;BME280;34163;49.314;6.752;2022-10-16T18:58:19;99778.97;;;6.02;100.00
48352;BME280;34163;49.314;6.752;2022-10-16T19:00:44;99781.56;;;6.03;100.00
48352;BME280;34163;49.314;6.752;2022-10-16T19:03:10;99778.75;;;6.09;100.00
48352;BME280;34163;49.314;6.752;2022-10-16T19:05:35;99783.31;;;6.03;100.00
48352;BME280;34163;49.314;6.752;2022-10-16T19:08:00;99787.69;;;6.04;100.00
48352;BME280;34163;49.314;6.752;2022-10-16T19:10:25;99782.34;;;6.07;100.00
48352;BME280;34163;49.314;6.752;2022-10-16T19:12:51;99792.03;;;6.05;100.00
48352;BME280;34163;49.314;6.752;2022-10-16T19:15:16;99793.66;;;6.10;100.00
48352;BME280;34163;49.314;6.752;2022-10-16T19:17:41;99794.59;;;6.08;100.00
48352;BME280;34163;49.314;6.752;2022-10-16T19:20:06;99796.25;;;6.12;100.00
48352;BME280;34163;49.314;6.752;2022-10-16T19:22:32;99804.19;;;6.10;100.00
48352;BME280;34163;49.314;6.752;2022-10-16T19:25:18;99799.97;;;6.03;100.00
48352;BME280;34163;49.314;6.752;2022-10-16T19:27:47;99797.53;;;5.94;100.00
48352;BME280;34163;49.314;6.752;2022-10-16T19:30:12;99791.94;;;6.08;100.00
48352;BME280;34163;49.314;6.752;2022-10-16T19:32:37;99798.84;;;6.13;100.00
48352;BME280;34163;49.314;6.752;2022-10-16T19:35:03;99804.50;;;5.96;100.00
48352;BME280;34163;49.314;6.752;2022-10-16T19:37:28;99810.00;;;5.86;100.00
48352;BME280;34163;49.314;6.752;2022-10-16T19:39:54;99798.53;;;5.88;100.00
48352;BME280;34163;49.314;6.752;2022-10-16T19:42:19;99791.34;;;5.95;100.00
48352;BME280;34163;49.314;6.752;2022-10-16T19:44:44;99790.50;;;5.94;100.00
48352;BME280;34163;49.314;6.752;2022-10-16T19:47:09;99792.47;;;5.85;100.00
48352;BME280;34163;49.314;6.752;2022-10-16T19:49:35;99790.69;;;5.87;100.00
48352;BME280;34163;49.314;6.752;2022-10-16T19:52:00;99795.03;;;5.88;100.00
48352;BME280;34163;49.314;6.752;2022-10-16T19:54:25;99802.88;;;5.91;100.00
48352;BME280;34163;49.314;6.752;2022-10-16T19:56:51;99808.13;;;5.91;100.00
48352;BME280;34163;49.314;6.752;2022-10-16T19:59:16;99801.94;;;5.92;100.00
48352;BME280;34163;49.314;6.752;2022-10-16T20:01:44;99816.88;;;5.91;100.00
48352;BME280;34163;49.314;6.752;2022-10-16T20:04:09;99818.72;;;5.88;100.00
48352;BME280;34163;49.314;6.752;2022-10-16T20:06:35;99820.06;;;5.67;100.00
48352;BME280;34163;49.314;6.752;2022-10-16T20:09:00;99822.19;;;5.88;100.00
48352;BME280;34163;49.314;6.752;2022-10-16T20:11:27;99830.88;;;5.92;100.00
48352;BME280;34163;49.314;6.752;2022-10-16T20:13:53;99835.28;;;5.91;100.00
48352;BME280;34163;49.314;6.752;2022-10-16T20:16:18;99829.16;;;5.91;100.00
48352;BME280;34163;49.314;6.752;2022-10-16T20:18:44;99836.66;;;5.69;100.00
48352;BME280;34163;49.314;6.752;2022-10-16T20:21:10;99825.88;;;5.81;100.00
48352;BME280;34163;49.314;6.752;2022-10-16T20:23:36;99843.03;;;5.99;100.00
48352;BME280;34163;49.314;6.752;2022-10-16T20:26:01;99834.31;;;5.95;100.00
48352;BME280;34163;49.314;6.752;2022-10-16T20:28:26;99831.69;;;5.97;100.00
48352;BME280;34163;49.314;6.752;2022-10-16T20:30:51;99831.00;;;5.87;100.00
48352;BME280;34163;49.314;6.752;2022-10-16T20:33:17;99831.06;;;5.84;100.00
48352;BME280;34163;49.314;6.752;2022-10-16T20:35:43;99827.47;;;5.88;100.00
48352;BME280;34163;49.314;6.752;2022-10-16T20:38:09;99836.66;;;5.69;100.00
48352;BME280;34163;49.314;6.752;2022-10-16T20:40:35;99829.94;;;5.94;100.00
48352;BME280;34163;49.314;6.752;2022-10-16T20:43:01;99831.91;;;5.86;100.00
48352;BME280;34163;49.314;6.752;2022-10-16T20:45:26;99832.53;;;5.97;100.00
48352;BME280;34163;49.314;6.752;2022-10-16T20:47:52;99830.78;;;5.98;100.00
48352;BME280;34163;49.314;6.752;2022-10-16T20:50:17;99835.25;;;5.93;100.00
48352;BME280;34163;49.314;6.752;2022-10-16T20:52:44;99833.44;;;5.96;100.00
48352;BME280;34163;49.314;6.752;2022-10-16T20:55:10;99841.53;;;5.87;100.00
48352;BME280;34163;49.314;6.752;2022-10-16T20:57:35;99838.97;;;5.84;100.00
48352;BME280;34163;49.314;6.752;2022-10-16T21:00:02;99843.91;;;5.98;100.00
48352;BME280;34163;49.314;6.752;2022-10-16T21:02:28;99845.63;;;6.00;100.00
